Archival Weather

Heathrow

Heathrow, United Kingdom (EGLL)

Report from: Thursday, June 23, 2022 4:50 AM BST
Current time: Tuesday, August 16, 2022 8:29 AM BST

Current weather
Weather history
Weather forecast

Temperature14.0°C (57.2°F)
Dew point11.0°C (51.8°F)
Winds 3 kts (1.5 m/s, 3.5 mph) Vrb
Winds variableWinds variable from East-Northeast (70°) to North (359.999999°)
Visibility6.2 mi. (10 km)
Clouds Sky clear
Altimeter29.85 in.Hg (1011 mB)
Relative humidity82 %
Density altitude142 ft. (43 m)
Remarks Fully automated report
Corrected report
No clouds detected
No significant changes expected in the next two hours
Flight conditions Visual Meteorological Conditions
Raw dataCOR EGLL 230350Z AUTO 03003KT 360V070 9999 NCD 14/11 Q1011 NOSIG
An error has occurred. This application may no longer respond until reloaded. Reload 🗙